createdAt,value
2019-04-16T00:01:01.352Z,0.79
2019-04-16T00:03:31.116Z,0.76
2019-04-16T00:06:14.222Z,0.72
2019-04-16T00:08:54.139Z,0.69
2019-04-16T00:11:58.413Z,0.69
2019-04-16T00:14:31.122Z,0.67
2019-04-16T00:17:01.040Z,0.65
2019-04-16T00:19:34.703Z,0.63
2019-04-16T00:22:17.775Z,0.63
2019-04-16T00:24:53.521Z,0.65
2019-04-16T00:27:28.266Z,0.70
2019-04-16T00:30:09.989Z,0.75
2019-04-16T00:32:42.729Z,0.79
2019-04-16T00:35:28.023Z,0.85
2019-04-16T00:37:58.127Z,0.95
2019-04-16T00:40:27.516Z,1.02
2019-04-16T00:42:59.801Z,1.29
2019-04-16T00:45:29.341Z,1.29
2019-04-16T00:47:58.928Z,1.40
2019-04-16T00:50:30.424Z,1.52
2019-04-16T00:53:00.095Z,1.63
2019-04-16T00:55:29.644Z,1.77
2019-04-16T00:57:59.208Z,1.87
2019-04-16T01:00:30.611Z,2.05
2019-04-16T01:02:59.827Z,2.23
2019-04-16T01:05:29.457Z,2.31
2019-04-16T01:07:58.865Z,2.39
2019-04-16T01:10:36.407Z,2.39
2019-04-16T01:13:05.798Z,2.53
2019-04-16T01:15:35.351Z,2.60
2019-04-16T01:18:08.020Z,2.60
2019-04-16T01:20:44.067Z,2.65
2019-04-16T01:23:17.486Z,2.71
2019-04-16T01:25:45.213Z,2.79
2019-04-16T01:28:17.100Z,2.79
2019-04-16T01:31:07.909Z,2.80
2019-04-16T01:33:48.550Z,2.79
2019-04-16T01:36:39.393Z,2.79
2019-04-16T01:39:17.677Z,2.87
2019-04-16T01:41:40.983Z,2.89
2019-04-16T01:44:10.824Z,2.86
2019-04-16T01:46:40.317Z,2.90
2019-04-16T01:49:11.101Z,2.95
2019-04-16T01:51:58.227Z,2.95
2019-04-16T01:54:27.626Z,2.92
2019-04-16T01:56:59.616Z,2.95
2019-04-16T01:59:28.811Z,2.97
2019-04-16T02:01:58.263Z,2.97
2019-04-16T02:04:27.639Z,2.99
2019-04-16T02:06:57.838Z,3.00
2019-04-16T02:09:27.267Z,3.04
2019-04-16T02:11:56.669Z,3.08
2019-04-16T02:14:26.105Z,3.08
2019-04-16T02:16:55.983Z,3.17
2019-04-16T02:19:26.068Z,3.17
2019-04-16T02:21:55.610Z,3.16
2019-04-16T02:24:25.035Z,3.17
2019-04-16T02:26:55.032Z,3.17
2019-04-16T02:29:29.814Z,3.19
2019-04-16T02:31:58.386Z,3.18
2019-04-16T02:34:27.784Z,3.15
2019-04-16T02:37:00.873Z,3.12
2019-04-16T02:39:47.223Z,3.11
2019-04-16T02:41:59.442Z,3.12
2019-04-16T02:44:28.915Z,3.12
2019-04-16T02:47:05.480Z,3.09
2019-04-16T02:49:29.394Z,3.06
2019-04-16T02:52:06.412Z,2.99
2019-04-16T02:54:42.772Z,2.99
2019-04-16T02:57:35.006Z,2.94
2019-04-16T03:00:09.751Z,2.89
2019-04-16T03:02:53.895Z,2.82
2019-04-16T03:05:36.004Z,2.82
2019-04-16T03:08:05.958Z,2.84
2019-04-16T03:10:35.785Z,2.84
2019-04-16T03:13:05.242Z,2.79
2019-04-16T03:15:52.879Z,2.81
2019-04-16T03:18:26.476Z,2.81
2019-04-16T03:20:56.619Z,2.79
2019-04-16T03:23:26.359Z,2.76
2019-04-16T03:25:55.726Z,2.76
2019-04-16T03:28:27.133Z,2.64
2019-04-16T03:30:56.695Z,2.68
2019-04-16T03:33:26.118Z,2.70
2019-04-16T03:35:57.823Z,2.71
2019-04-16T03:38:27.082Z,2.68
2019-04-16T03:40:59.579Z,2.68
2019-04-16T03:43:29.489Z,2.72
2019-04-16T03:46:00.246Z,2.72
2019-04-16T03:48:29.622Z,2.73
2019-04-16T03:51:00.555Z,2.79
2019-04-16T03:53:30.454Z,2.79
2019-04-16T03:56:00.703Z,2.80
2019-04-16T03:58:30.118Z,2.79
2019-04-16T04:00:59.612Z,2.88
2019-04-16T04:03:29.079Z,2.90
2019-04-16T04:05:58.803Z,2.95
2019-04-16T04:08:28.513Z,2.95
2019-04-16T04:11:10.531Z,3.01
2019-04-16T04:13:40.019Z,3.07
2019-04-16T04:16:16.521Z,3.07
2019-04-16T04:18:46.148Z,3.26
2019-04-16T04:21:22.034Z,3.26
2019-04-16T04:23:49.939Z,3.35
2019-04-16T04:26:24.684Z,3.34
2019-04-16T04:28:54.054Z,3.36
2019-04-16T04:31:23.808Z,3.30
2019-04-16T04:33:53.311Z,3.29
2019-04-16T04:36:26.442Z,3.29
2019-04-16T04:38:53.819Z,3.28
2019-04-16T04:41:37.731Z,3.27
2019-04-16T04:44:07.217Z,3.26
2019-04-16T04:46:37.202Z,3.25
2019-04-16T04:49:06.578Z,3.24
2019-04-16T04:51:42.698Z,3.26
2019-04-16T04:54:08.872Z,3.29
2019-04-16T04:56:38.308Z,3.34
2019-04-16T04:59:07.703Z,3.39
2019-04-16T05:01:42.046Z,3.44
2019-04-16T05:04:27.987Z,3.48
2019-04-16T05:07:00.031Z,3.54
2019-04-16T05:09:32.617Z,3.56
2019-04-16T05:12:00.484Z,3.53
2019-04-16T05:14:30.356Z,3.52
2019-04-16T05:16:59.801Z,3.48
2019-04-16T05:19:29.477Z,3.49
2019-04-16T05:21:59.222Z,3.52
2019-04-16T05:24:29.817Z,3.50
2019-04-16T05:26:59.402Z,3.55
2019-04-16T05:29:48.951Z,3.66
2019-04-16T05:32:17.581Z,3.75
2019-04-16T05:34:48.575Z,3.86
2019-04-16T05:37:19.802Z,3.86
2019-04-16T05:39:49.349Z,3.90
2019-04-16T05:42:18.952Z,3.90
2019-04-16T05:44:48.573Z,4.00
2019-04-16T05:47:18.379Z,4.02
2019-04-16T05:49:48.155Z,3.97
2019-04-16T05:52:21.379Z,3.91
2019-04-16T05:55:20.073Z,3.95
2019-04-16T05:57:51.777Z,4.09
2019-04-16T06:00:29.105Z,4.24
2019-04-16T06:02:58.497Z,4.31
2019-04-16T06:05:28.230Z,4.40
2019-04-16T06:08:09.054Z,4.47
2019-04-16T06:10:41.369Z,4.55
2019-04-16T06:13:47.941Z,4.61
2019-04-16T06:16:36.702Z,4.57
2019-04-16T06:19:14.458Z,4.55
2019-04-16T06:22:01.528Z,4.44
2019-04-16T06:24:41.543Z,4.44
2019-04-16T06:27:33.139Z,4.60
2019-04-16T06:30:20.549Z,4.66
2019-04-16T06:32:56.282Z,4.57
2019-04-16T06:35:45.476Z,4.57
2019-04-16T06:38:18.126Z,4.58
2019-04-16T06:41:06.662Z,4.74
2019-04-16T06:43:39.343Z,4.87
2019-04-16T06:46:33.609Z,5.00
2019-04-16T06:49:21.044Z,5.12
2019-04-16T06:52:16.036Z,5.20
2019-04-16T06:55:15.644Z,5.22
2019-04-16T06:58:07.760Z,5.29
2019-04-16T07:01:05.873Z,5.34
2019-04-16T07:04:01.327Z,5.44
2019-04-16T07:07:01.705Z,5.56
2019-04-16T07:09:41.465Z,5.75
2019-04-16T07:12:15.324Z,5.94
2019-04-16T07:14:45.518Z,6.01
2019-04-16T07:17:18.353Z,6.14
2019-04-16T07:19:47.536Z,6.23
2019-04-16T07:22:20.933Z,6.25
2019-04-16T07:24:50.609Z,6.39
2019-04-16T07:27:21.260Z,6.57
2019-04-16T07:29:55.643Z,6.68
2019-04-16T07:32:56.131Z,6.72
2019-04-16T07:35:59.504Z,6.78
2019-04-16T07:38:47.862Z,6.88
2019-04-16T07:41:43.208Z,7.13
2019-04-16T07:44:18.127Z,7.26
2019-04-16T07:47:12.616Z,7.60
2019-04-16T07:50:02.973Z,7.70
2019-04-16T07:52:57.620Z,7.70
2019-04-16T07:55:44.967Z,7.78
2019-04-16T07:58:15.514Z,7.95
2019-04-16T08:00:45.067Z,7.92
2019-04-16T08:03:14.475Z,7.93
2019-04-16T08:05:43.912Z,8.02
2019-04-16T08:08:13.341Z,8.09
2019-04-16T08:10:43.005Z,8.13
2019-04-16T08:13:19.831Z,8.25
2019-04-16T08:15:49.399Z,8.34
2019-04-16T08:18:19.007Z,8.37
2019-04-16T08:21:10.107Z,8.36
2019-04-16T08:23:39.619Z,8.40
2019-04-16T08:26:12.946Z,8.56
2019-04-16T08:28:41.753Z,8.65
2019-04-16T08:31:16.442Z,8.77
2019-04-16T08:33:46.204Z,8.89
2019-04-16T08:36:15.579Z,8.98
2019-04-16T08:38:46.442Z,9.09
2019-04-16T08:41:19.993Z,9.09
2019-04-16T08:43:47.293Z,9.17
2019-04-16T08:46:17.108Z,9.29
2019-04-16T08:48:49.331Z,9.41
2019-04-16T08:51:29.750Z,9.50
2019-04-16T08:53:49.800Z,9.47
2019-04-16T08:56:21.612Z,9.59
2019-04-16T08:58:57.322Z,9.49
2019-04-16T09:01:29.032Z,9.49
2019-04-16T09:04:01.221Z,9.47
2019-04-16T09:06:29.506Z,9.58
2019-04-16T09:09:24.323Z,9.70
2019-04-16T09:11:57.802Z,9.85
2019-04-16T09:14:29.391Z,10.07
2019-04-16T09:17:05.318Z,10.22
2019-04-16T09:19:35.819Z,10.43
2019-04-16T09:22:08.999Z,10.55
2019-04-16T09:24:44.411Z,10.59
2019-04-16T09:27:28.637Z,10.64
2019-04-16T09:30:16.882Z,10.57
2019-04-16T09:33:02.513Z,10.48
2019-04-16T09:35:50.825Z,10.37
2019-04-16T09:38:45.155Z,10.40
2019-04-16T09:41:19.760Z,10.69
2019-04-16T09:43:53.650Z,11.02
2019-04-16T09:46:48.395Z,11.33
2019-04-16T09:48:54.223Z,11.50
2019-04-16T09:51:25.380Z,11.72
2019-04-16T09:53:54.761Z,11.89
2019-04-16T09:56:29.881Z,11.93
2019-04-16T09:59:16.746Z,11.93
2019-04-16T10:02:01.946Z,11.87
2019-04-16T10:04:32.681Z,11.81
2019-04-16T10:07:02.176Z,11.95
2019-04-16T10:09:31.573Z,11.98
2019-04-16T10:12:00.957Z,12.04
2019-04-16T10:14:30.362Z,12.12
2019-04-16T10:16:59.745Z,12.19
2019-04-16T10:19:29.241Z,12.26
2019-04-16T10:21:58.600Z,12.39
2019-04-16T10:24:49.772Z,12.57
2019-04-16T10:27:37.043Z,12.55
2019-04-16T10:30:16.081Z,12.40
2019-04-16T10:32:45.589Z,12.37
2019-04-16T10:35:15.333Z,12.42
2019-04-16T10:37:44.785Z,12.45
2019-04-16T10:40:36.647Z,12.27
2019-04-16T10:43:43.990Z,12.14
2019-04-16T10:46:19.882Z,11.94
2019-04-16T10:49:07.241Z,11.78
2019-04-16T10:51:54.458Z,11.74
2019-04-16T10:54:37.100Z,11.57
2019-04-16T10:57:22.752Z,11.63
2019-04-16T11:00:11.676Z,11.84
2019-04-16T11:02:47.913Z,12.05
2019-04-16T11:05:36.335Z,12.08
2019-04-16T11:08:07.382Z,11.80
2019-04-16T11:10:46.820Z,11.64
2019-04-16T11:13:25.635Z,11.52
2019-04-16T11:15:57.146Z,11.37
2019-04-16T11:18:26.534Z,11.32
2019-04-16T11:20:56.172Z,11.47
2019-04-16T11:23:25.884Z,11.61
2019-04-16T11:26:10.864Z,11.89
2019-04-16T11:28:40.408Z,12.07
2019-04-16T11:31:13.299Z,12.32
2019-04-16T11:33:42.668Z,12.52
2019-04-16T11:36:19.360Z,12.71
2019-04-16T11:38:46.283Z,12.93
2019-04-16T11:41:15.989Z,13.09
2019-04-16T11:43:45.671Z,13.20
2019-04-16T11:46:15.176Z,13.24
2019-04-16T11:48:44.508Z,13.19
2019-04-16T11:51:13.996Z,13.26
2019-04-16T11:53:43.521Z,13.11
2019-04-16T11:56:15.483Z,12.89
2019-04-16T11:58:48.856Z,12.74
2019-04-16T12:01:52.873Z,12.75
2019-04-16T12:04:27.164Z,12.82
2019-04-16T12:07:10.899Z,12.88
2019-04-16T12:09:58.324Z,13.10
2019-04-16T12:12:46.775Z,13.32
2019-04-16T12:15:35.278Z,13.23
2019-04-16T12:18:26.700Z,13.31
2019-04-16T12:21:24.091Z,13.39
2019-04-16T12:24:02.993Z,13.42
2019-04-16T12:27:10.282Z,13.42
2019-04-16T12:29:59.059Z,13.43
2019-04-16T12:32:53.484Z,13.37
2019-04-16T12:35:54.370Z,13.24
2019-04-16T12:38:27.519Z,13.14
2019-04-16T12:41:14.878Z,13.09
2019-04-16T12:43:50.940Z,13.11
2019-04-16T12:46:41.412Z,13.19
2019-04-16T12:49:33.123Z,13.06
2019-04-16T12:52:22.907Z,13.11
2019-04-16T12:55:14.030Z,13.06
2019-04-16T12:58:04.876Z,13.06
2019-04-16T13:00:44.296Z,13.00
2019-04-16T13:03:20.985Z,13.05
2019-04-16T13:06:04.968Z,13.16
2019-04-16T13:08:53.630Z,13.35
2019-04-16T13:11:35.206Z,13.46
2019-04-16T13:14:23.106Z,13.63
2019-04-16T13:17:28.050Z,13.79
2019-04-16T13:20:13.946Z,13.76
2019-04-16T13:22:47.104Z,13.70
2019-04-16T13:25:22.782Z,13.65
2019-04-16T13:27:52.529Z,13.71
2019-04-16T13:30:21.922Z,13.72
2019-04-16T13:32:51.335Z,13.72
2019-04-16T13:35:20.827Z,13.71
2019-04-16T13:37:50.291Z,13.65
2019-04-16T13:40:20.192Z,13.66
2019-04-16T13:42:50.927Z,13.69
2019-04-16T13:45:27.733Z,13.64
2019-04-16T13:47:57.314Z,13.54
2019-04-16T13:50:53.461Z,13.42
2019-04-16T13:53:50.719Z,13.37
2019-04-16T13:56:50.363Z,13.45
2019-04-16T13:59:34.343Z,13.46
2019-04-16T14:02:25.655Z,13.36
2019-04-16T14:04:55.107Z,13.36
2019-04-16T14:07:25.521Z,13.44
2019-04-16T14:09:54.935Z,13.48
2019-04-16T14:12:41.226Z,13.44
2019-04-16T14:14:56.440Z,13.41
2019-04-16T14:17:26.896Z,13.42
2019-04-16T14:19:56.554Z,13.44
2019-04-16T14:22:29.208Z,13.47
2019-04-16T14:24:58.607Z,13.37
2019-04-16T14:27:30.955Z,13.33
2019-04-16T14:30:00.295Z,13.31
2019-04-16T14:32:29.750Z,13.21
2019-04-16T14:35:01.151Z,13.31
2019-04-16T14:37:32.874Z,13.25
2019-04-16T14:40:15.540Z,13.26
2019-04-16T14:42:48.057Z,13.20
2019-04-16T14:45:50.139Z,13.25
2019-04-16T14:48:08.612Z,13.32
2019-04-16T14:50:36.962Z,13.40
2019-04-16T14:53:08.046Z,13.41
2019-04-16T14:56:05.271Z,13.44
2019-04-16T14:58:55.828Z,13.47
2019-04-16T15:01:35.083Z,13.42
2019-04-16T15:04:43.801Z,13.40
2019-04-16T15:07:32.465Z,13.38
2019-04-16T15:10:19.375Z,13.31
2019-04-16T15:12:58.760Z,13.25
2019-04-16T15:15:40.708Z,13.18
2019-04-16T15:18:40.822Z,13.14
2019-04-16T15:21:32.498Z,13.15
2019-04-16T15:24:09.037Z,13.10
2019-04-16T15:27:00.293Z,13.14
2019-04-16T15:29:47.282Z,13.17
2019-04-16T15:32:49.938Z,13.08
2019-04-16T15:35:24.123Z,12.99
2019-04-16T15:38:21.759Z,12.99
2019-04-16T15:40:53.003Z,13.01
2019-04-16T15:43:40.147Z,13.01
2019-04-16T15:46:30.336Z,13.12
2019-04-16T15:49:09.662Z,13.35
2019-04-16T15:51:48.023Z,13.57
2019-04-16T15:54:51.234Z,13.87
2019-04-16T15:57:36.180Z,14.15
2019-04-16T16:00:28.803Z,14.58
2019-04-16T16:03:27.200Z,14.83
2019-04-16T16:06:03.390Z,15.28
2019-04-16T16:08:38.449Z,15.67
2019-04-16T16:11:17.383Z,16.00
2019-04-16T16:13:47.080Z,16.21
2019-04-16T16:16:18.119Z,16.43
2019-04-16T16:18:51.002Z,16.55
2019-04-16T16:21:20.386Z,16.42
2019-04-16T16:23:49.870Z,16.38
2019-04-16T16:26:20.049Z,16.56
2019-04-16T16:28:49.425Z,16.78
2019-04-16T16:31:18.893Z,17.00
2019-04-16T16:33:48.344Z,16.99
2019-04-16T16:36:17.973Z,16.98
2019-04-16T16:38:48.513Z,17.02
2019-04-16T16:41:18.816Z,16.95
2019-04-16T16:43:48.242Z,16.88
2019-04-16T16:46:38.686Z,16.91
2019-04-16T16:49:10.187Z,17.03
2019-04-16T16:51:42.567Z,16.97
2019-04-16T16:54:19.080Z,16.94
2019-04-16T16:57:03.584Z,16.80
2019-04-16T16:59:35.392Z,16.57
2019-04-16T17:02:24.794Z,16.32
2019-04-16T17:04:55.013Z,16.07
2019-04-16T17:07:24.523Z,16.06
2019-04-16T17:09:55.849Z,15.99
2019-04-16T17:12:25.309Z,15.60
2019-04-16T17:14:54.676Z,14.66
2019-04-16T17:17:24.116Z,13.81
2019-04-16T17:19:53.730Z,13.06
2019-04-16T17:22:23.459Z,12.41
2019-04-16T17:24:52.863Z,12.01
2019-04-16T17:27:22.327Z,11.76
2019-04-16T17:29:51.717Z,11.54
2019-04-16T17:32:21.309Z,11.27
2019-04-16T17:34:50.916Z,11.07
2019-04-16T17:37:21.443Z,10.85
2019-04-16T17:39:53.783Z,10.66
2019-04-16T17:42:48.157Z,10.52
2019-04-16T17:45:46.228Z,10.51
2019-04-16T17:48:25.229Z,10.85
2019-04-16T17:51:13.503Z,11.03
2019-04-16T17:54:05.020Z,11.17
2019-04-16T17:57:02.488Z,11.14
2019-04-16T17:59:42.072Z,10.93
2019-04-16T18:02:41.678Z,10.66
2019-04-16T18:05:30.322Z,10.36
2019-04-16T18:08:30.589Z,10.03
2019-04-16T18:11:11.184Z,9.79
2019-04-16T18:13:56.718Z,9.57
2019-04-16T18:16:36.210Z,9.40
2019-04-16T18:19:24.945Z,9.26
2019-04-16T18:22:16.993Z,9.10
2019-04-16T18:25:14.704Z,8.98
2019-04-16T18:28:05.434Z,8.85
2019-04-16T18:30:50.121Z,8.72
2019-04-16T18:33:43.228Z,8.58
2019-04-16T18:36:43.788Z,8.47
2019-04-16T18:39:37.142Z,8.36
2019-04-16T18:42:15.862Z,8.23
2019-04-16T18:45:07.438Z,8.13
2019-04-16T18:48:01.401Z,8.06
2019-04-16T18:51:15.724Z,8.00
2019-04-16T18:53:45.299Z,7.87
2019-04-16T18:56:14.797Z,7.81
2019-04-16T18:58:44.192Z,7.72
2019-04-16T19:01:17.574Z,7.66
2019-04-16T19:03:47.253Z,7.60
2019-04-16T19:06:17.097Z,7.54
2019-04-16T19:08:46.479Z,7.48
2019-04-16T19:11:16.295Z,7.42
2019-04-16T19:13:45.893Z,7.35
2019-04-16T19:16:15.512Z,7.30
2019-04-16T19:18:45.062Z,7.26
2019-04-16T19:21:18.212Z,7.21
2019-04-16T19:23:47.839Z,7.20
2019-04-16T19:26:17.734Z,7.11
2019-04-16T19:28:47.822Z,7.06
2019-04-16T19:31:22.769Z,6.99
2019-04-16T19:33:48.524Z,6.93
2019-04-16T19:36:27.537Z,6.86
2019-04-16T19:38:55.717Z,6.79
2019-04-16T19:41:25.096Z,6.75
2019-04-16T19:43:54.708Z,6.69
2019-04-16T19:46:24.131Z,6.61
2019-04-16T19:48:56.753Z,6.53
2019-04-16T19:51:25.784Z,6.46
2019-04-16T19:53:56.063Z,6.38
2019-04-16T19:56:25.476Z,6.34
2019-04-16T19:58:54.880Z,6.24
2019-04-16T20:01:24.284Z,6.23
2019-04-16T20:03:53.694Z,6.15
2019-04-16T20:06:26.163Z,6.12
2019-04-16T20:08:54.396Z,6.07
2019-04-16T20:11:23.993Z,6.05
2019-04-16T20:13:53.653Z,5.98
2019-04-16T20:16:23.146Z,5.92
2019-04-16T20:18:52.540Z,5.86
2019-04-16T20:21:22.160Z,5.79
2019-04-16T20:23:51.534Z,5.74
2019-04-16T20:26:21.051Z,5.66
2019-04-16T20:28:50.482Z,5.63
2019-04-16T20:31:27.001Z,5.57
2019-04-16T20:33:56.458Z,5.52
2019-04-16T20:36:25.863Z,5.47
2019-04-16T20:38:55.522Z,5.41
2019-04-16T20:41:25.268Z,5.37
2019-04-16T20:43:54.630Z,5.33
2019-04-16T20:46:46.060Z,5.22
2019-04-16T20:49:16.878Z,5.22
2019-04-16T20:51:51.589Z,5.18
2019-04-16T20:54:21.832Z,5.17
2019-04-16T20:56:53.227Z,5.12
2019-04-16T20:59:22.357Z,5.09
2019-04-16T21:01:51.718Z,5.04
2019-04-16T21:04:21.073Z,5.01
2019-04-16T21:06:50.498Z,4.98
2019-04-16T21:09:20.107Z,4.88
2019-04-16T21:11:52.590Z,4.88
2019-04-16T21:14:21.814Z,4.84
2019-04-16T21:16:52.031Z,4.82
2019-04-16T21:19:23.694Z,4.80
2019-04-16T21:21:56.421Z,4.78
2019-04-16T21:24:26.101Z,4.78
2019-04-16T21:26:55.488Z,4.76
2019-04-16T21:29:33.570Z,4.72
2019-04-16T21:32:02.649Z,4.68
2019-04-16T21:34:38.733Z,4.68
2019-04-16T21:37:27.044Z,4.63
2019-04-16T21:39:59.006Z,4.60
2019-04-16T21:42:28.392Z,4.58
2019-04-16T21:44:58.084Z,4.57
2019-04-16T21:47:27.537Z,4.55
2019-04-16T21:49:56.950Z,4.53
2019-04-16T21:52:26.412Z,4.50
2019-04-16T21:54:56.565Z,4.46
2019-04-16T21:57:25.931Z,4.44
2019-04-16T21:59:58.150Z,4.43
2019-04-16T22:02:34.501Z,4.39
2019-04-16T22:05:02.988Z,4.38
2019-04-16T22:07:32.410Z,4.35
2019-04-16T22:10:02.153Z,4.37
2019-04-16T22:12:31.699Z,4.36
2019-04-16T22:15:02.535Z,4.37
2019-04-16T22:17:35.547Z,4.39
2019-04-16T22:20:04.514Z,4.39
2019-04-16T22:22:34.013Z,4.39
2019-04-16T22:25:03.401Z,4.40
2019-04-16T22:27:32.776Z,4.42
2019-04-16T22:30:02.177Z,4.45
2019-04-16T22:32:31.762Z,4.48
2019-04-16T22:35:01.152Z,4.51
2019-04-16T22:37:30.524Z,4.55
2019-04-16T22:40:13.511Z,4.56
2019-04-16T22:43:06.867Z,4.58
2019-04-16T22:45:53.440Z,4.60
2019-04-16T22:48:22.882Z,4.62
2019-04-16T22:50:52.262Z,4.68
2019-04-16T22:53:21.893Z,4.72
2019-04-16T22:55:56.379Z,4.75
2019-04-16T22:58:24.802Z,4.79
2019-04-16T23:00:58.400Z,4.80
2019-04-16T23:03:27.752Z,4.84
2019-04-16T23:05:57.172Z,4.86
2019-04-16T23:08:26.738Z,4.87
2019-04-16T23:10:56.111Z,4.88
2019-04-16T23:13:25.564Z,4.85
2019-04-16T23:15:54.993Z,4.85
2019-04-16T23:18:24.427Z,4.85
2019-04-16T23:20:53.851Z,4.80
2019-04-16T23:23:34.418Z,4.76
2019-04-16T23:26:03.823Z,4.79
2019-04-16T23:28:43.456Z,4.79
2019-04-16T23:31:14.411Z,4.75
2019-04-16T23:33:43.871Z,4.75
2019-04-16T23:36:16.558Z,4.70
2019-04-16T23:38:44.477Z,4.70
2019-04-16T23:41:16.625Z,4.68
2019-04-16T23:44:00.303Z,4.64
2019-04-16T23:46:54.745Z,4.63
2019-04-16T23:49:55.079Z,4.66
2019-04-16T23:52:31.874Z,4.73
2019-04-16T23:55:06.711Z,4.80
2019-04-16T23:57:56.788Z,4.85
